createdAt,value
2018-06-18T00:00:02.776Z,46.60
2018-06-18T00:02:30.833Z,46.60
2018-06-18T00:04:58.476Z,46.60
2018-06-18T00:07:26.074Z,46.60
2018-06-18T00:09:53.692Z,46.60
2018-06-18T00:12:21.308Z,46.50
2018-06-18T00:14:49.026Z,47.00
2018-06-18T00:17:16.805Z,46.40
2018-06-18T00:19:44.446Z,46.50
2018-06-18T00:22:16.298Z,46.60
2018-06-18T00:24:44.889Z,46.50
2018-06-18T00:27:12.477Z,46.40
2018-06-18T00:29:40.049Z,46.40
2018-06-18T00:32:07.992Z,46.40
2018-06-18T00:34:35.594Z,46.30
2018-06-18T00:37:03.476Z,46.40
2018-06-18T00:39:31.073Z,46.40
2018-06-18T00:41:58.695Z,46.40
2018-06-18T00:44:26.338Z,46.50
2018-06-18T00:46:54.035Z,47.20
2018-06-18T00:49:21.636Z,46.60
2018-06-18T00:51:49.290Z,47.20
2018-06-18T00:54:16.937Z,46.60
2018-06-18T00:56:44.644Z,46.60
2018-06-18T00:59:12.241Z,46.60
2018-06-18T01:01:39.833Z,46.60
2018-06-18T01:04:08.102Z,46.70
2018-06-18T01:06:35.745Z,46.70
2018-06-18T01:09:07.256Z,46.70
2018-06-18T01:11:34.887Z,46.80
2018-06-18T01:14:02.531Z,46.80
2018-06-18T01:16:30.143Z,46.90
2018-06-18T01:18:57.676Z,47.00
2018-06-18T01:21:25.269Z,47.00
2018-06-18T01:24:01.157Z,47.20
2018-06-18T01:26:28.804Z,47.30
2018-06-18T01:31:24.375Z,47.60
2018-06-18T01:33:56.262Z,47.70
2018-06-18T01:36:23.869Z,47.70
2018-06-18T01:38:51.456Z,47.90
2018-06-18T01:41:19.064Z,48.00
2018-06-18T01:43:46.654Z,48.10
2018-06-18T01:46:14.254Z,48.30
2018-06-18T01:48:41.929Z,48.30
2018-06-18T01:51:09.504Z,48.40
2018-06-18T01:53:37.135Z,48.30
2018-06-18T01:56:04.725Z,48.50
2018-06-18T01:58:32.336Z,48.60
2018-06-18T02:00:59.927Z,48.70
2018-06-18T02:03:27.536Z,48.70
2018-06-18T02:05:55.453Z,48.70
2018-06-18T02:08:23.022Z,48.70
2018-06-18T02:10:50.595Z,48.80
2018-06-18T02:13:18.268Z,48.80
2018-06-18T02:15:45.882Z,48.80
2018-06-18T02:18:13.468Z,48.90
2018-06-18T02:20:41.072Z,49.10
2018-06-18T02:23:08.675Z,49.10
2018-06-18T02:25:36.304Z,49.10
2018-06-18T02:28:09.629Z,49.30
2018-06-18T02:30:42.989Z,49.40
2018-06-18T02:33:16.321Z,50.00
2018-06-18T02:35:49.880Z,49.50
2018-06-18T02:38:23.274Z,49.60
2018-06-18T02:40:50.941Z,49.70
2018-06-18T02:43:18.631Z,49.80
2018-06-18T02:45:46.459Z,49.90
2018-06-18T02:48:14.075Z,50.00
2018-06-18T02:50:42.300Z,50.00
2018-06-18T02:53:09.940Z,50.00
2018-06-18T02:55:39.922Z,50.10
2018-06-18T02:58:07.545Z,50.20
2018-06-18T03:00:35.213Z,50.30
2018-06-18T03:03:02.905Z,50.40
2018-06-18T03:05:30.525Z,50.50
2018-06-18T03:07:58.217Z,50.60
2018-06-18T03:10:25.856Z,50.70
2018-06-18T03:12:53.549Z,50.80
2018-06-18T03:15:21.242Z,50.80
2018-06-18T03:17:48.805Z,50.90
2018-06-18T03:20:22.292Z,51.20
2018-06-18T03:22:55.832Z,51.00
2018-06-18T03:27:37.100Z,51.10
2018-06-18T03:30:04.940Z,51.10
2018-06-18T03:32:32.576Z,51.00
2018-06-18T03:35:00.176Z,51.40
2018-06-18T03:37:27.778Z,51.60
2018-06-18T03:39:55.510Z,51.80
2018-06-18T03:42:23.134Z,52.00
2018-06-18T03:45:02.235Z,52.20
2018-06-18T03:47:30.131Z,52.20
2018-06-18T03:49:57.780Z,52.20
2018-06-18T03:52:25.363Z,52.30
2018-06-18T03:54:59.096Z,52.30
2018-06-18T03:57:26.840Z,52.60
2018-06-18T03:59:54.427Z,52.20
2018-06-18T04:04:41.957Z,52.10
2018-06-18T04:07:15.332Z,52.10
2018-06-18T04:09:48.667Z,51.60
2018-06-18T04:12:16.318Z,51.70
2018-06-18T04:14:43.952Z,51.70
2018-06-18T04:17:11.594Z,51.70
2018-06-18T04:19:39.229Z,51.50
2018-06-18T04:22:06.819Z,51.50
2018-06-18T04:24:34.395Z,51.40
2018-06-18T04:27:02.009Z,51.20
2018-06-18T04:29:29.636Z,51.20
2018-06-18T04:31:57.303Z,51.20
2018-06-18T04:34:30.653Z,51.20
2018-06-18T04:36:58.806Z,51.20
2018-06-18T04:39:26.888Z,51.10
2018-06-18T04:42:00.372Z,51.00
2018-06-18T04:44:33.886Z,51.00
2018-06-18T04:47:07.447Z,51.60
2018-06-18T04:49:40.790Z,51.10
2018-06-18T04:52:08.512Z,51.10
2018-06-18T04:54:36.231Z,51.10
2018-06-18T04:57:03.882Z,51.10
2018-06-18T04:59:33.689Z,51.20
2018-06-18T05:02:03.214Z,51.20
2018-06-18T05:04:30.817Z,51.20
2018-06-18T05:06:58.467Z,51.10
2018-06-18T05:09:35.215Z,50.90
2018-06-18T05:12:02.859Z,50.80
2018-06-18T05:14:31.054Z,50.80
2018-06-18T05:16:58.612Z,50.60
2018-06-18T05:19:26.212Z,50.60
2018-06-18T05:21:53.806Z,50.60
2018-06-18T05:24:21.400Z,50.50
2018-06-18T05:26:51.895Z,50.60
2018-06-18T05:29:22.291Z,50.50
2018-06-18T05:31:49.921Z,50.60
2018-06-18T05:34:20.806Z,50.70
2018-06-18T05:36:50.862Z,50.50
2018-06-18T05:39:18.500Z,50.30
2018-06-18T05:44:13.805Z,49.70
2018-06-18T05:46:41.406Z,49.30
2018-06-18T05:49:09.045Z,49.00
2018-06-18T05:51:36.666Z,48.80
2018-06-18T05:54:04.297Z,48.80
2018-06-18T05:56:31.941Z,48.70
2018-06-18T05:58:59.596Z,48.70
2018-06-18T06:01:27.268Z,48.70
2018-06-18T06:03:55.208Z,48.50
2018-06-18T06:06:22.859Z,48.20
2018-06-18T06:08:50.549Z,47.90
2018-06-18T06:11:18.184Z,47.80
2018-06-18T06:13:45.788Z,47.90
2018-06-18T06:23:53.997Z,48.10
2018-06-18T06:26:21.640Z,48.40
2018-06-18T06:28:49.303Z,47.70
2018-06-18T06:31:16.962Z,47.50
2018-06-18T06:33:44.564Z,47.30
2018-06-18T06:36:12.748Z,47.10
2018-06-18T06:38:40.365Z,47.10
2018-06-18T06:41:09.422Z,47.20
2018-06-18T06:43:37.000Z,47.00
2018-06-18T06:46:04.613Z,46.60
2018-06-18T06:48:33.065Z,46.10
2018-06-18T06:51:00.680Z,45.80
2018-06-18T06:53:28.269Z,45.90
2018-06-18T06:55:55.932Z,45.90
2018-06-18T06:58:23.527Z,45.90
2018-06-18T07:00:51.113Z,45.70
2018-06-18T07:03:18.733Z,45.20
2018-06-18T07:05:46.374Z,44.60
2018-06-18T07:08:13.978Z,44.30
2018-06-18T07:10:41.583Z,44.00
2018-06-18T07:13:09.167Z,42.80
2018-06-18T07:15:36.795Z,42.80
2018-06-18T07:18:04.641Z,41.40
2018-06-18T07:20:32.500Z,40.60
2018-06-18T07:23:00.155Z,39.70
2018-06-18T07:25:27.760Z,38.50
2018-06-18T07:27:55.417Z,37.30
2018-06-18T07:30:23.095Z,36.20
2018-06-18T07:32:50.652Z,35.70
2018-06-18T07:37:45.845Z,35.40
2018-06-18T07:40:13.441Z,35.20
2018-06-18T07:42:41.000Z,34.80
2018-06-18T07:45:08.665Z,34.50
2018-06-18T07:47:36.333Z,34.20
2018-06-18T07:50:03.968Z,33.70
2018-06-18T07:52:31.710Z,33.60
2018-06-18T07:54:59.346Z,33.50
2018-06-18T07:57:26.971Z,33.50
2018-06-18T07:59:54.576Z,33.90
2018-06-18T08:02:22.212Z,33.30
2018-06-18T08:04:49.848Z,33.20
2018-06-18T08:07:17.475Z,33.10
2018-06-18T08:09:45.142Z,33.20
2018-06-18T08:12:12.734Z,33.20
2018-06-18T08:14:40.356Z,33.20
2018-06-18T08:17:08.010Z,33.00
2018-06-18T08:19:35.687Z,32.70
2018-06-18T08:22:03.301Z,32.20
2018-06-18T08:24:30.982Z,31.60
2018-06-18T08:26:58.650Z,30.90
2018-06-18T08:29:26.224Z,30.50
2018-06-18T08:31:53.867Z,30.00
2018-06-18T08:34:21.488Z,29.60
2018-06-18T08:36:49.158Z,29.20
2018-06-18T08:39:16.785Z,28.90
2018-06-18T08:41:44.405Z,28.60
2018-06-18T08:44:12.094Z,28.40
2018-06-18T08:46:39.764Z,28.10
2018-06-18T08:49:08.314Z,27.90
2018-06-18T08:51:41.851Z,27.80
2018-06-18T08:54:16.055Z,27.90
2018-06-18T08:56:49.421Z,28.00
2018-06-18T08:59:22.837Z,28.10
2018-06-18T09:01:50.470Z,28.80
2018-06-18T09:04:23.925Z,28.50
2018-06-18T09:06:51.571Z,28.60
2018-06-18T09:09:19.148Z,28.80
2018-06-18T09:11:46.719Z,29.00
2018-06-18T09:14:14.277Z,29.20
2018-06-18T09:16:41.871Z,29.40
2018-06-18T09:19:09.502Z,29.60
2018-06-18T09:21:37.116Z,29.70
2018-06-18T09:24:04.914Z,29.80
2018-06-18T09:26:32.480Z,30.00
2018-06-18T09:29:00.083Z,30.00
2018-06-18T09:31:27.684Z,30.40
2018-06-18T09:33:55.264Z,30.60
2018-06-18T09:36:22.939Z,30.80
2018-06-18T09:38:50.549Z,31.00
2018-06-18T09:41:18.205Z,31.30
2018-06-18T09:43:45.837Z,31.60
2018-06-18T09:46:13.485Z,32.00
2018-06-18T09:48:46.843Z,32.30
2018-06-18T09:51:20.363Z,32.50
2018-06-18T09:53:53.801Z,32.60
2018-06-18T09:57:29.085Z,32.90
2018-06-18T10:00:00.083Z,33.10
2018-06-18T10:02:28.299Z,33.40
2018-06-18T10:04:57.100Z,33.70
2018-06-18T10:07:24.902Z,33.90
2018-06-18T10:09:52.769Z,33.90
2018-06-18T10:12:20.340Z,34.10
2018-06-18T10:14:47.919Z,34.50
2018-06-18T10:17:15.782Z,34.90
2018-06-18T10:19:43.392Z,35.30
2018-06-18T10:22:11.625Z,35.60
2018-06-18T10:24:39.238Z,35.60
2018-06-18T10:27:06.804Z,35.50
2018-06-18T10:29:34.616Z,34.90
2018-06-18T10:32:02.290Z,34.00
2018-06-18T10:34:35.710Z,32.90
2018-06-18T10:37:09.177Z,31.90
2018-06-18T10:39:42.520Z,31.30
2018-06-18T10:42:15.886Z,31.00
2018-06-18T10:44:43.505Z,30.40
2018-06-18T10:47:11.086Z,30.00
2018-06-18T10:49:38.684Z,29.60
2018-06-18T10:52:06.273Z,29.10
2018-06-18T10:54:33.896Z,28.60
2018-06-18T10:57:01.584Z,28.10
2018-06-18T10:59:29.128Z,27.80
2018-06-18T11:01:56.744Z,27.60
2018-06-18T11:04:28.342Z,27.50
2018-06-18T11:06:55.935Z,27.40
2018-06-18T11:09:24.411Z,27.50
2018-06-18T11:11:52.188Z,27.70
2018-06-18T11:14:19.913Z,27.80
2018-06-18T11:16:53.466Z,27.90
2018-06-18T11:19:26.732Z,28.10
2018-06-18T11:22:00.229Z,28.40
2018-06-18T11:24:33.938Z,28.60
2018-06-18T11:27:01.556Z,28.90
2018-06-18T11:29:29.125Z,29.10
2018-06-18T11:31:56.700Z,29.40
2018-06-18T11:34:24.300Z,29.50
2018-06-18T11:36:51.911Z,29.80
2018-06-18T11:39:19.483Z,29.90
2018-06-18T11:41:49.993Z,30.30
2018-06-18T11:44:17.525Z,30.60
2018-06-18T11:46:45.127Z,30.90
2018-06-18T11:49:12.686Z,31.00
2018-06-18T11:51:40.304Z,31.00
2018-06-18T11:54:07.952Z,31.00
2018-06-18T11:56:35.523Z,31.10
2018-06-18T11:59:08.763Z,31.20
2018-06-18T12:01:42.121Z,31.20
2018-06-18T12:04:15.562Z,31.20
2018-06-18T12:06:49.047Z,31.20
2018-06-18T12:09:22.511Z,31.00
2018-06-18T12:11:50.345Z,30.80
2018-06-18T12:14:17.933Z,30.70
2018-06-18T12:16:45.554Z,30.60
2018-06-18T12:19:13.135Z,31.00
2018-06-18T12:21:41.044Z,30.60
2018-06-18T12:24:08.860Z,30.50
2018-06-18T12:26:36.625Z,31.00
2018-06-18T12:29:04.273Z,30.50
2018-06-18T12:31:31.869Z,30.40
2018-06-18T12:33:59.472Z,30.60
2018-06-18T12:38:54.741Z,30.80
2018-06-18T12:41:22.361Z,31.10
2018-06-18T12:43:53.560Z,31.30
2018-06-18T12:46:27.057Z,32.10
2018-06-18T12:49:00.518Z,31.70
2018-06-18T12:51:34.044Z,31.50
2018-06-18T12:54:08.290Z,31.40
2018-06-18T12:56:41.689Z,31.70
2018-06-18T12:59:09.288Z,31.80
2018-06-18T13:01:40.712Z,31.80
2018-06-18T13:04:08.993Z,31.90
2018-06-18T13:06:36.598Z,31.90
2018-06-18T13:09:07.608Z,31.70
2018-06-18T13:11:36.152Z,31.60
2018-06-18T13:14:03.760Z,31.60
2018-06-18T13:16:31.406Z,31.40
2018-06-18T13:18:59.329Z,31.10
2018-06-18T13:21:26.965Z,30.80
2018-06-18T13:23:54.524Z,30.60
2018-06-18T13:26:22.132Z,30.20
2018-06-18T13:28:49.740Z,29.90
2018-06-18T13:31:17.377Z,29.60
2018-06-18T13:33:44.963Z,29.30
2018-06-18T13:36:12.605Z,29.20
2018-06-18T13:38:45.883Z,29.00
2018-06-18T13:41:19.333Z,29.00
2018-06-18T13:43:52.577Z,28.90
2018-06-18T13:46:26.008Z,28.70
2018-06-18T13:48:54.641Z,28.50
2018-06-18T13:51:23.016Z,28.50
2018-06-18T13:53:50.653Z,28.60
2018-06-18T13:56:18.452Z,28.60
2018-06-18T13:58:46.081Z,28.50
2018-06-18T14:01:13.827Z,28.60
2018-06-18T14:03:41.914Z,28.70
2018-06-18T14:06:09.572Z,29.20
2018-06-18T14:08:37.166Z,28.80
2018-06-18T14:11:04.801Z,28.90
2018-06-18T14:13:34.123Z,28.90
2018-06-18T14:16:01.954Z,29.00
2018-06-18T14:18:29.561Z,29.00
2018-06-18T14:20:57.179Z,29.00
2018-06-18T14:23:24.924Z,29.10
2018-06-18T14:25:52.606Z,29.10
2018-06-18T14:28:20.342Z,29.10
2018-06-18T14:30:54.057Z,29.10
2018-06-18T14:33:27.411Z,29.20
2018-06-18T14:36:00.788Z,29.40
2018-06-18T14:38:34.298Z,29.40
2018-06-18T14:41:02.029Z,29.40
2018-06-18T14:43:29.672Z,29.50
2018-06-18T14:48:32.002Z,29.60
2018-06-18T14:50:59.601Z,29.60
2018-06-18T14:53:27.195Z,29.70
2018-06-18T14:58:32.287Z,29.70
2018-06-18T15:00:59.908Z,29.80
2018-06-18T15:03:27.476Z,29.80
2018-06-18T15:05:55.134Z,29.80
2018-06-18T15:08:22.809Z,29.80
2018-06-18T15:10:52.238Z,29.80
2018-06-18T15:13:19.837Z,29.90
2018-06-18T15:15:53.676Z,29.90
2018-06-18T15:20:49.384Z,30.00
2018-06-18T15:23:17.003Z,30.00
2018-06-18T15:25:47.561Z,30.00
2018-06-18T15:28:15.174Z,30.00
2018-06-18T15:30:42.809Z,30.00
2018-06-18T15:33:10.511Z,30.00
2018-06-18T15:35:38.135Z,30.00
2018-06-18T15:38:05.856Z,30.20
2018-06-18T15:40:33.457Z,30.10
2018-06-18T15:43:01.155Z,30.20
2018-06-18T15:45:28.834Z,30.20
2018-06-18T15:47:57.328Z,30.20
2018-06-18T15:50:25.066Z,30.20
2018-06-18T15:52:52.672Z,30.30
2018-06-18T15:55:20.259Z,30.20
2018-06-18T15:57:47.929Z,30.20
2018-06-18T16:00:15.597Z,30.10
2018-06-18T16:02:43.201Z,30.10
2018-06-18T16:05:10.817Z,30.00
2018-06-18T16:07:38.458Z,30.00
2018-06-18T16:10:06.064Z,29.90
2018-06-18T16:12:33.780Z,30.00
2018-06-18T16:15:01.449Z,30.00
2018-06-18T16:17:29.092Z,30.00
2018-06-18T16:19:57.033Z,30.10
2018-06-18T16:22:24.642Z,30.10
2018-06-18T16:24:52.466Z,30.40
2018-06-18T16:27:20.077Z,30.70
2018-06-18T16:29:47.687Z,30.90
2018-06-18T16:32:15.351Z,31.10
2018-06-18T16:34:43.045Z,31.20
2018-06-18T16:39:38.363Z,31.30
2018-06-18T16:42:06.040Z,31.30
2018-06-18T16:44:33.637Z,31.80
2018-06-18T16:47:01.219Z,31.20
2018-06-18T16:49:28.840Z,31.10
2018-06-18T16:54:24.116Z,31.30
2018-06-18T16:56:51.761Z,31.30
2018-06-18T16:59:19.735Z,31.30
2018-06-18T17:01:47.312Z,31.40
2018-06-18T17:04:14.888Z,31.30
2018-06-18T17:06:42.532Z,31.30
2018-06-18T17:09:11.171Z,31.20
2018-06-18T17:11:38.862Z,31.10
2018-06-18T17:14:07.029Z,31.20
2018-06-18T17:16:34.751Z,31.20
2018-06-18T17:19:02.376Z,31.10
2018-06-18T17:21:30.018Z,31.10
2018-06-18T17:23:57.662Z,31.20
2018-06-18T17:26:25.317Z,31.00
2018-06-18T17:28:52.983Z,31.00
2018-06-18T17:31:21.881Z,31.00
2018-06-18T17:33:49.472Z,31.60
2018-06-18T17:36:17.116Z,31.10
2018-06-18T17:38:44.722Z,31.10
2018-06-18T17:41:12.325Z,31.20
2018-06-18T17:43:39.950Z,31.30
2018-06-18T17:46:07.577Z,31.30
2018-06-18T17:48:35.212Z,31.40
2018-06-18T17:51:02.879Z,31.50
2018-06-18T17:55:59.389Z,31.70
2018-06-18T17:58:27.353Z,31.70
2018-06-18T18:00:55.568Z,31.80
2018-06-18T18:05:51.237Z,31.80
2018-06-18T18:08:18.959Z,31.90
2018-06-18T18:10:46.737Z,31.80
2018-06-18T18:13:14.570Z,31.90
2018-06-18T18:15:42.143Z,31.80
2018-06-18T18:18:10.083Z,31.90
2018-06-18T18:23:06.088Z,32.10
2018-06-18T18:25:34.460Z,32.70
2018-06-18T18:28:02.940Z,32.20
2018-06-18T18:30:30.773Z,32.30
2018-06-18T18:33:47.408Z,32.40
2018-06-18T18:36:15.345Z,32.40
2018-06-18T18:38:43.316Z,32.60
2018-06-18T18:41:10.981Z,32.70
2018-06-18T18:43:38.876Z,32.90
2018-06-18T18:46:06.518Z,33.00
2018-06-18T18:48:34.352Z,33.10
2018-06-18T18:51:03.038Z,33.10
2018-06-18T18:53:31.658Z,33.20
2018-06-18T18:57:18.516Z,33.30
2018-06-18T18:59:46.125Z,33.30
2018-06-18T19:02:14.280Z,33.40
2018-06-18T19:04:59.483Z,33.60
2018-06-18T19:07:38.310Z,33.80
2018-06-18T19:10:18.958Z,34.00
2018-06-18T19:12:47.319Z,34.20
2018-06-18T19:15:15.595Z,34.40
2018-06-18T19:20:17.091Z,34.80
2018-06-18T19:22:45.369Z,35.40
2018-06-18T19:25:13.319Z,35.10
2018-06-18T19:27:41.678Z,35.30
2018-06-18T19:30:10.599Z,35.40
2018-06-18T19:32:40.145Z,35.60
2018-06-18T19:35:08.544Z,35.70
2018-06-18T19:37:36.351Z,35.90
2018-06-18T19:42:32.700Z,36.20
2018-06-18T19:45:00.298Z,36.40
2018-06-18T19:47:37.334Z,37.10
2018-06-18T19:50:04.957Z,36.60
2018-06-18T19:52:32.770Z,36.80
2018-06-18T19:55:07.841Z,37.00
2018-06-18T19:57:35.719Z,37.20
2018-06-18T20:00:04.380Z,37.40
2018-06-18T20:02:33.691Z,37.50
2018-06-18T20:05:09.111Z,37.60
2018-06-18T20:07:43.775Z,37.70
2018-06-18T20:10:11.781Z,37.90
2018-06-18T20:12:39.468Z,38.00
2018-06-18T20:17:38.129Z,38.30
2018-06-18T20:20:07.421Z,38.50
2018-06-18T20:22:35.246Z,38.60
2018-06-18T20:25:03.078Z,38.70
2018-06-18T20:27:30.855Z,38.90
2018-06-18T20:29:58.870Z,39.00
2018-06-18T20:32:26.452Z,39.20
2018-06-18T20:34:55.653Z,39.20
2018-06-18T20:37:23.827Z,39.50
2018-06-18T20:39:51.953Z,39.70
2018-06-18T20:42:20.378Z,39.80
2018-06-18T20:44:48.530Z,39.90
2018-06-18T20:47:16.568Z,40.00
2018-06-18T20:49:44.526Z,40.20
2018-06-18T20:52:12.861Z,40.20
2018-06-18T20:54:41.175Z,40.40
2018-06-18T20:57:09.221Z,40.60
2018-06-18T20:59:37.088Z,41.30
2018-06-18T21:02:04.965Z,40.80
2018-06-18T21:04:34.208Z,41.00
2018-06-18T21:07:02.245Z,41.20
2018-06-18T21:09:30.181Z,41.20
2018-06-18T21:11:57.804Z,41.40
2018-06-18T21:14:25.704Z,41.60
2018-06-18T21:16:53.956Z,41.80
2018-06-18T21:19:21.675Z,41.90
2018-06-18T21:21:49.876Z,42.00
2018-06-18T21:24:17.508Z,42.10
2018-06-18T21:26:45.125Z,42.20
2018-06-18T21:29:13.882Z,42.30
2018-06-18T21:31:41.574Z,42.40
2018-06-18T21:34:09.177Z,42.50
2018-06-18T21:36:36.847Z,42.50
2018-06-18T21:39:07.086Z,42.50
2018-06-18T21:41:34.705Z,42.60
2018-06-18T21:44:02.688Z,42.60
2018-06-18T21:46:30.625Z,42.50
2018-06-18T21:48:59.210Z,42.60
2018-06-18T21:51:27.048Z,42.70
2018-06-18T21:53:55.262Z,42.80
2018-06-18T21:56:23.659Z,42.90
2018-06-18T21:58:51.954Z,42.80
2018-06-18T22:01:47.112Z,42.90
2018-06-18T22:04:15.904Z,42.90
2018-06-18T22:06:44.426Z,42.80
2018-06-18T22:09:17.723Z,42.80
2018-06-18T22:11:49.407Z,42.90
2018-06-18T22:14:17.430Z,43.00
2018-06-18T22:16:45.460Z,43.00
2018-06-18T22:19:13.452Z,43.10
2018-06-18T22:21:41.328Z,43.20
2018-06-18T22:24:10.108Z,43.30
2018-06-18T22:26:38.018Z,43.40
2018-06-18T22:29:06.084Z,43.50
2018-06-18T22:31:34.133Z,43.50
2018-06-18T22:34:01.769Z,43.60
2018-06-18T22:36:29.399Z,43.70
2018-06-18T22:38:57.035Z,43.80
2018-06-18T22:41:24.705Z,43.90
2018-06-18T22:43:52.360Z,43.90
2018-06-18T22:46:20.024Z,44.00
2018-06-18T22:48:47.624Z,44.10
2018-06-18T22:51:15.300Z,44.10
2018-06-18T22:53:42.948Z,44.20
2018-06-18T22:56:10.567Z,44.20
2018-06-18T22:58:38.229Z,44.90
2018-06-18T23:01:05.843Z,44.30
2018-06-18T23:03:33.516Z,44.30
2018-06-18T23:06:01.228Z,44.40
2018-06-18T23:08:28.924Z,44.40
2018-06-18T23:10:56.501Z,44.50
2018-06-18T23:13:28.217Z,44.60
2018-06-18T23:15:55.816Z,44.60
2018-06-18T23:18:23.478Z,44.60
2018-06-18T23:20:51.159Z,44.70
2018-06-18T23:23:18.788Z,44.70
2018-06-18T23:25:46.977Z,44.70
2018-06-18T23:28:14.623Z,44.70
2018-06-18T23:30:42.359Z,44.80
2018-06-18T23:33:10.024Z,44.90
2018-06-18T23:35:37.685Z,45.00
2018-06-18T23:38:05.376Z,44.60
2018-06-18T23:40:32.976Z,45.10
2018-06-18T23:43:00.625Z,45.20
2018-06-18T23:45:28.258Z,45.20
2018-06-18T23:50:23.633Z,45.40
2018-06-18T23:52:51.602Z,45.30
2018-06-18T23:55:19.245Z,45.30
2018-06-18T23:57:46.985Z,45.40
